Time;durP1;ratioP1;P1;durP2;ratioP2;P2;SDS_P1;SDS_P2;PMS_P1;PMS_P2;Temp;Humidity;BMP_temperature;BMP_pressure;BME280_temperature;BME280_humidity;BME280_pressure;Samples;Min_cycle;Max_cycle;Signal;HPM_P1;HPM_P2
2023/07/23 07:01:25;;;;;;;1.20;1.00;;;16.10;99.90;17.70;100426.00;;;;6192267;22;1387160;-67
2023/07/23 07:03:53;;;;;;;2.20;2.03;;;16.10;99.90;17.70;100422.00;;;;6246443;23;20631;-66
2023/07/23 07:06:24;;;;;;;1.97;0.90;;;16.10;99.90;17.30;100420.00;;;;6246698;23;20150;-66
2023/07/23 07:08:52;;;;;;;1.53;1.43;;;16.00;99.90;17.80;100421.00;;;;6247668;22;20576;-66
2023/07/23 07:11:20;;;;;;;1.67;1.37;;;16.10;99.90;17.30;100420.00;;;;6247945;22;20228;-66
2023/07/23 07:13:46;;;;;;;0.80;0.50;;;16.00;99.90;17.30;100411.00;;;;6246624;23;20216;-66
2023/07/23 07:16:11;;;;;;;0.30;0.30;;;16.00;99.90;17.80;100417.00;;;;6247677;22;20143;-66
2023/07/23 07:18:38;;;;;;;1.90;1.10;;;16.10;99.90;17.40;100413.00;;;;6247626;23;20164;-67
2023/07/23 07:21:09;;;;;;;1.43;1.33;;;16.10;99.90;17.80;100423.00;;;;6246683;23;20150;-66
2023/07/23 07:23:45;;;;;;;2.27;0.53;;;16.20;99.90;18.10;100413.00;;;;6247483;23;20194;-66
2023/07/23 07:26:11;;;;;;;0.73;0.73;;;16.40;99.90;17.80;100413.00;;;;6247601;22;20607;-66
2023/07/23 07:28:37;;;;;;;0.77;0.70;;;16.30;99.90;17.80;100405.00;;;;6247069;23;20141;-66
2023/07/23 07:31:11;;;;;;;1.53;1.43;;;16.30;99.90;17.30;100411.00;;;;6220220;23;20178;-66
2023/07/23 07:33:44;;;;;;;0.83;0.83;;;16.20;99.90;17.70;100420.00;;;;6221508;23;20166;-66
2023/07/23 07:36:13;;;;;;;0.13;0.13;;;16.20;99.90;17.70;100404.00;;;;6247793;22;20146;-64
2023/07/23 07:38:50;;;;;;;1.60;0.87;;;16.20;99.90;18.30;100406.00;;;;6245955;23;20251;-66
2023/07/23 07:41:29;;;;;;;1.13;1.03;;;16.40;99.90;18.60;100400.00;;;;6247623;22;20140;-66
2023/07/23 07:44:03;;;;;;;0.87;0.87;;;16.70;99.90;18.00;100406.00;;;;6247474;22;20258;-66
2023/07/23 07:46:38;;;;;;;1.33;1.23;;;16.50;99.90;18.30;100369.00;;;;6247591;22;20185;-66
2023/07/23 07:49:05;;;;;;;0.67;0.67;;;16.60;99.90;17.90;100404.00;;;;6247344;22;20572;-66
2023/07/23 07:51:31;;;;;;;3.10;1.27;;;16.50;99.90;18.40;100399.00;;;;6246358;23;20138;-66
2023/07/23 07:53:57;;;;;;;7.13;1.60;;;16.60;99.90;17.90;100400.00;;;;6247240;23;20145;-66
2023/07/23 07:56:23;;;;;;;6.60;2.50;;;16.50;99.90;18.10;100401.00;;;;6220760;23;20188;-66
2023/07/23 07:58:54;;;;;;;1.20;0.73;;;16.60;99.90;17.80;100409.00;;;;6246879;22;20142;-66
2023/07/23 08:01:29;;;;;;;0.30;0.30;;;16.50;99.90;18.20;100400.00;;;;6244777;23;20180;-66
2023/07/23 08:04:07;;;;;;;2.53;1.07;;;16.50;99.90;18.50;100395.00;;;;6247368;22;20181;-66
2023/07/23 08:06:40;;;;;;;0.87;0.87;;;16.60;99.90;18.10;100393.00;;;;6245565;23;20144;-66
2023/07/23 08:09:17;;;;;;;1.70;1.60;;;16.60;99.90;18.10;100399.00;;;;6246108;23;20604;-68
2023/07/23 08:11:44;;;;;;;1.57;1.23;;;16.60;99.90;18.30;100382.00;;;;6245761;23;20147;-67
2023/07/23 08:14:16;;;;;;;1.83;1.73;;;16.70;99.90;17.90;100384.00;;;;6245547;23;20596;-68
2023/07/23 08:16:42;;;;;;;0.30;0.30;;;16.70;99.90;18.40;100394.00;;;;6239536;23;20573;-68
2023/07/23 08:19:08;;;;;;;0.77;0.77;;;16.80;99.90;18.30;100393.00;;;;6217224;23;20159;-67
2023/07/23 08:21:35;;;;;;;0.40;0.40;;;16.80;99.90;18.60;100403.00;;;;6242424;23;20149;-68
2023/07/23 08:24:01;;;;;;;0.90;0.90;;;16.90;99.90;17.80;100401.00;;;;6243828;23;20154;-68
2023/07/23 08:26:30;;;;;;;0.73;0.60;;;16.70;99.90;18.20;100396.00;;;;6242718;23;20152;-68
2023/07/23 08:29:03;;;;;;;0.33;0.33;;;16.70;99.90;18.30;100402.00;;;;6242111;23;20162;-68
2023/07/23 08:31:29;;;;;;;4.63;1.73;;;16.70;99.90;18.00;100394.00;;;;6242561;23;20150;-68
2023/07/23 08:33:55;;;;;;;1.40;0.77;;;16.60;99.90;17.90;100397.00;;;;6243912;22;20154;-69
2023/07/23 08:36:22;;;;;;;0.83;0.77;;;16.60;99.90;18.10;100397.00;;;;6242692;23;20480;-68
2023/07/23 08:38:51;;;;;;;1.57;1.40;;;16.60;99.90;18.00;100381.00;;;;6242127;23;20145;-68
2023/07/23 08:42:09;;;;;;;0.20;0.20;;;16.60;99.90;18.80;100412.00;;;;6244061;23;20152;-70
2023/07/23 08:45:17;;;;;;;0.80;0.80;;;16.60;99.90;18.70;100406.00;;;;6242170;23;20246;-69
2023/07/23 08:47:47;;;;;;;0.20;0.20;;;16.90;99.90;19.10;100404.00;;;;6243818;22;20159;-69
2023/07/23 08:50:14;;;;;;;0.20;0.20;;;17.00;99.90;18.60;100404.00;;;;6216964;23;20222;-70
2023/07/23 08:52:42;;;;;;;1.70;1.60;;;16.90;99.90;18.30;100402.00;;;;6241943;23;20155;-69
2023/07/23 08:55:08;;;;;;;0.60;0.60;;;16.90;99.90;19.20;100407.00;;;;6242476;23;20485;-69
2023/07/23 08:57:35;;;;;;;1.17;1.00;;;17.20;99.90;18.70;100407.00;;;;6216641;23;20169;-69
2023/07/23 09:00:06;;;;;;;1.50;1.13;;;17.10;99.90;18.80;100407.00;;;;6241750;23;20175;-68
2023/07/23 09:02:57;;;;;;;0.50;0.50;;;17.10;99.90;19.00;100401.00;;;;6243713;23;20179;-69
2023/07/23 09:05:23;;;;;;;0.30;0.30;;;17.30;99.90;19.40;100394.00;;;;6245502;23;20189;-69
2023/07/23 09:07:53;;;;;;;4.53;4.23;;;17.40;99.90;19.70;100402.00;;;;6246110;23;20153;-72
2023/07/23 09:10:22;;;;;;;0.67;0.67;;;17.60;99.90;19.30;100393.00;;;;6220090;23;20160;-67
2023/07/23 09:12:56;;;;;;;0.83;0.83;;;17.70;99.90;19.20;100394.00;;;;6245206;23;20156;-68
2023/07/23 09:15:55;;;;;;;1.67;1.07;;;17.70;99.90;19.70;100403.00;;;;6245167;23;20155;-68
2023/07/23 09:18:38;;;;;;;0.50;0.50;;;17.80;99.90;19.80;100388.00;;;;6244837;23;20148;-68
2023/07/23 09:22:00;;;;;;;1.30;1.20;;;17.80;99.90;19.40;100379.00;;;;6245542;23;20144;-68
2023/07/23 09:25:13;;;;;;;0.20;0.20;;;17.80;99.90;19.50;100394.00;;;;6245016;23;20156;-68
2023/07/23 09:27:48;;;;;;;0.40;0.40;;;17.60;99.90;20.40;100366.00;;;;6246420;22;20235;-68
2023/07/23 09:30:21;;;;;;;0.70;0.70;;;18.10;99.90;20.00;100383.00;;;;6246372;22;20503;-69
2023/07/23 09:33:16;;;;;;;2.20;1.03;;;18.20;99.90;19.80;100390.00;;;;6195265;23;20160;-67
2023/07/23 09:35:52;;;;;;;0.20;0.20;;;18.20;99.90;19.60;100399.00;;;;6140047;22;20162;-69
2023/07/23 09:38:55;;;;;;;0.70;0.50;;;18.10;99.90;19.70;100400.00;;;;6246677;22;20141;-69
2023/07/23 09:41:29;;;;;;;1.13;0.50;;;18.20;99.90;19.70;100399.00;;;;6225654;23;20187;-69
2023/07/23 09:44:20;;;;;;;0.30;0.30;;;18.20;99.90;20.20;100402.00;;;;6244634;23;20260;-68
2023/07/23 09:46:49;;;;;;;0.20;0.20;;;18.30;99.90;20.40;100396.00;;;;6244970;23;20497;-69
2023/07/23 09:49:34;;;;;;;1.13;1.02;;;18.50;99.90;20.70;100397.00;;;;6245987;23;20600;-68
2023/07/23 09:52:12;;;;;;;0.63;0.63;;;18.80;99.90;20.40;100390.00;;;;6219536;23;20165;-73
2023/07/23 09:54:48;;;;;;;1.23;0.90;;;18.80;99.90;20.60;100384.00;;;;6246164;22;20134;-68
2023/07/23 09:57:24;;;;;;;2.70;1.98;;;18.90;99.90;20.70;100384.00;;;;6243805;23;20201;-68
2023/07/23 10:00:02;;;;;;;0.45;0.45;;;19.10;99.90;21.30;100389.00;;;;6240977;23;20172;-68
2023/07/23 10:03:31;;;;;;;0.60;0.60;;;19.20;99.90;20.90;100388.00;;;;6243281;22;20200;-68
2023/07/23 10:06:53;;;;;;;0.20;0.20;;;19.10;99.90;21.50;100382.00;;;;6242706;22;20605;-66
2023/07/23 10:10:02;;;;;;;1.15;1.05;;;19.60;99.90;21.40;100384.00;;;;6242758;22;20483;-66
2023/07/23 10:12:37;;;;;;;0.40;0.40;;;19.60;99.90;22.40;100363.00;;;;6223107;23;20614;-68
2023/07/23 10:15:07;;;;;;;0.57;0.57;;;20.00;99.90;22.70;100389.00;;;;6241371;23;20152;-69
2023/07/23 10:17:47;;;;;;;1.40;0.55;;;20.10;99.90;22.10;100387.00;;;;6241395;23;20177;-69
2023/07/23 10:20:18;;;;;;;0.20;0.20;;;20.30;99.90;21.50;100388.00;;;;6241442;23;20148;-68
2023/07/23 10:33:42;;;;;;;0.10;0.10;;;19.70;99.90;21.80;100412.00;;;;5096146;27;20518;-68
2023/07/23 10:36:16;;;;;;;3.13;1.08;;;20.10;99.90;21.90;100394.00;;;;5076132;28;20223;-69
2023/07/23 10:39:14;;;;;;;1.15;0.90;;;20.20;99.90;22.70;100394.00;;;;5074390;28;20536;-69
2023/07/23 10:42:35;;;;;;;1.48;1.25;;;20.60;99.90;21.80;100382.00;;;;5074255;28;20737;-68
2023/07/23 10:45:25;;;;;;;0.10;0.10;;;20.60;99.90;22.10;100368.00;;;;5074821;28;20338;-68
2023/07/23 10:48:06;;;;;;;0.28;0.20;;;20.40;99.90;22.60;100387.00;;;;5074659;28;20288;-68
2023/07/23 10:50:42;;;;;;;4.78;1.63;;;20.50;99.90;22.50;100388.00;;;;5074740;28;20298;-68
2023/07/23 10:53:17;;;;;;;0.10;0.10;;;20.60;99.90;22.50;100386.00;;;;5075670;28;20270;-68
2023/07/23 10:55:55;;;;;;;0.98;0.80;;;20.60;99.90;22.70;100373.00;;;;5091127;28;20280;-68
2023/07/23 10:58:27;;;;;;;1.27;1.17;;;20.80;99.90;22.00;100388.00;;;;5074195;28;20228;-68
2023/07/23 11:00:59;;;;;;;0.22;0.22;;;20.70;99.90;22.50;100384.00;;;;5074580;28;20309;-68
2023/07/23 11:03:45;;;;;;;0.80;0.80;;;20.60;99.90;22.90;100388.00;;;;5074212;28;20197;-66
2023/07/23 11:06:53;;;;;;;0.17;0.17;;;20.90;99.90;23.20;100387.00;;;;5074436;28;20278;-67
2023/07/23 11:10:16;;;;;;;0.10;0.10;;;21.30;99.90;23.70;100396.00;;;;5075913;28;20193;-67
2023/07/23 11:13:12;;;;;;;0.10;0.10;;;21.40;99.90;23.40;100382.00;;;;5074181;28;20197;-67
2023/07/23 11:15:52;;;;;;;1.10;0.95;;;21.70;99.90;23.70;100397.00;;;;5073826;28;20204;-67
2023/07/23 11:18:48;;;;;;;0.40;0.40;;;21.70;99.90;22.80;100379.00;;;;5073750;28;20576;-67
2023/07/23 11:21:46;;;;;;;0.10;0.10;;;21.50;99.90;24.10;100393.00;;;;5074377;28;20189;-66
2023/07/23 11:24:39;;;;;;;0.40;0.40;;;21.80;99.90;24.60;100405.00;;;;5053816;28;20215;-66
2023/07/23 11:27:31;;;;;;;0.20;0.20;;;22.30;99.90;25.20;100408.00;;;;5057815;28;20606;-67
2023/07/23 11:30:13;;;;;;;0.20;0.20;;;22.80;99.90;24.20;100415.00;;;;5068230;28;20560;-67
2023/07/23 11:33:33;;;;;;;0.28;0.28;;;22.30;99.90;24.70;100412.00;;;;5045537;28;20292;-66
2023/07/23 11:36:24;;;;;;;0.30;0.25;;;22.20;99.90;24.70;100424.00;;;;5061937;28;20184;-67
2023/07/23 11:42:52;;;;;;;1.00;0.40;;;21.80;99.90;23.90;100400.00;;;;5059633;28;20190;-67
2023/07/23 11:48:26;;;;;;;1.65;0.90;;;21.60;99.90;22.10;100401.00;;;;5069261;28;20652;-67
2023/07/23 11:51:02;;;;;;;0.13;0.13;;;21.00;99.90;23.20;100403.00;;;;5054331;28;20186;-67
2023/07/23 11:53:33;;;;;;;0.10;0.10;;;21.10;99.90;23.40;100414.00;;;;5054761;28;20182;-67
2023/07/23 11:56:26;;;;;;;0.55;0.50;;;21.30;99.90;23.90;100416.00;;;;5055559;28;20174;-67
2023/07/23 11:59:05;;;;;;;0.13;0.13;;;21.80;99.90;25.40;100433.00;;;;5054073;28;20186;-67
2023/07/23 12:01:35;;;;;;;0.88;0.65;;;22.60;99.90;25.00;100432.00;;;;5054336;28;20300;-67
2023/07/23 12:04:03;;;;;;;0.10;0.10;;;23.00;99.90;24.70;100428.00;;;;5054647;28;20190;-67
2023/07/23 12:06:37;;;;;;;0.55;0.52;;;22.90;99.90;25.30;100437.00;;;;5054001;28;20186;-67
2023/07/23 12:09:19;;;;;;;0.57;0.57;;;23.00;99.90;23.90;100414.00;;;;5054045;28;20174;-67
2023/07/23 12:11:47;;;;;;;0.30;0.30;;;22.50;99.90;25.40;100433.00;;;;5055193;28;20206;-67
2023/07/23 12:14:39;;;;;;;0.70;0.57;;;22.80;99.90;25.70;100439.00;;;;5054012;28;20189;-66
2023/07/23 12:17:08;;;;;;;0.40;0.40;;;23.00;99.90;24.40;100415.00;;;;5055145;28;20178;-67
2023/07/23 12:19:42;;;;;;;0.30;0.30;;;22.90;99.90;26.10;100442.00;;;;5054523;28;20209;-67
2023/07/23 12:22:13;;;;;;;0.63;0.30;;;23.40;99.90;25.30;100429.00;;;;5044797;28;20312;-67
2023/07/23 12:24:44;;;;;;;0.57;0.57;;;23.30;99.90;25.30;100416.00;;;;5055308;28;20175;-67
2023/07/23 12:27:12;;;;;;;0.10;0.10;;;23.10;99.90;24.90;100428.00;;;;5055186;28;20198;-67
2023/07/23 12:29:42;;;;;;;1.60;1.00;;;22.80;99.90;23.60;100412.00;;;;5055100;28;20189;-67
2023/07/23 12:32:16;;;;;;;0.28;0.28;;;22.40;99.90;24.70;100425.00;;;;5054786;28;20221;-67
2023/07/23 12:34:47;;;;;;;2.38;0.90;;;22.50;99.90;23.40;100378.00;;;;5053886;28;20268;-66
2023/07/23 12:37:16;;;;;;;0.80;0.73;;;22.10;99.90;25.40;100427.00;;;;5053651;28;20174;-67
2023/07/23 12:39:49;;;;;;;0.82;0.80;;;22.60;99.90;24.60;100417.00;;;;5044274;28;20170;-67
2023/07/23 12:42:18;;;;;;;0.10;0.10;;;22.70;99.90;25.70;100428.00;;;;5053486;28;20209;-67
2023/07/23 12:44:47;;;;;;;0.20;0.15;;;23.00;99.90;25.80;100442.00;;;;5053622;28;20196;-67
2023/07/23 12:48:20;;;;;;;0.17;0.17;;;23.20;99.90;25.30;100431.00;;;;5036580;28;20718;-67
2023/07/23 12:50:51;;;;;;;0.40;0.40;;;22.90;99.90;25.20;100442.00;;;;5053512;28;20193;-67
2023/07/23 12:53:18;;;;;;;0.10;0.10;;;23.00;99.90;24.70;100428.00;;;;5053311;28;20214;-67
2023/07/23 12:55:45;;;;;;;0.10;0.10;;;22.70;99.90;26.10;100451.00;;;;5053992;28;20244;-67
2023/07/23 12:58:23;;;;;;;0.30;0.30;;;23.00;99.90;25.00;100450.00;;;;5053249;28;20189;-67
2023/07/23 13:00:59;;;;;;;0.10;0.10;;;23.00;99.90;24.70;100418.00;;;;5053664;28;20623;-67
2023/07/23 13:04:03;;;;;;;0.20;0.20;;;22.80;99.90;24.30;100393.00;;;;5052872;28;20190;-67
2023/07/23 13:06:57;;;;;;;0.80;0.45;;;22.30;99.90;23.60;100419.00;;;;5053458;28;20263;-67
2023/07/23 13:09:22;;;;;;;0.47;0.40;;;21.90;99.90;23.50;100420.00;;;;5047335;28;20194;-67
2023/07/23 13:11:59;;;;;;;0.10;0.10;;;21.80;99.90;24.20;100426.00;;;;5051962;28;20613;-67
2023/07/23 13:14:31;;;;;;;0.20;0.20;;;21.90;99.90;23.70;100440.00;;;;5053299;28;20181;-67
2023/07/23 13:17:00;;;;;;;0.32;0.32;;;21.80;99.90;23.40;100410.00;;;;5053153;28;20178;-67
2023/07/23 13:19:31;;;;;;;0.50;0.50;;;21.60;99.90;22.90;100422.00;;;;5053770;28;20179;-67
2023/07/23 13:22:06;;;;;;;0.32;0.30;;;21.30;99.90;23.40;100425.00;;;;5054198;28;20183;-67
2023/07/23 13:24:35;;;;;;;0.10;0.10;;;21.60;99.90;23.90;100414.00;;;;5052998;28;20189;-67
2023/07/23 13:27:11;;;;;;;0.20;0.20;;;21.70;99.90;24.20;100404.00;;;;5053390;28;20186;-67
2023/07/23 13:30:07;;;;;;;0.10;0.10;;;22.10;99.90;24.70;100403.00;;;;5069468;28;20186;-67
2023/07/23 13:32:45;;;;;;;0.32;0.32;;;22.30;99.90;25.40;100406.00;;;;5041116;28;20257;-67
2023/07/23 13:35:19;;;;;;;0.50;0.50;;;22.70;99.90;25.50;100412.00;;;;5083820;28;20182;-67
2023/07/23 13:37:48;;;;;;;1.15;0.50;;;23.00;99.90;25.70;100422.00;;;;5054062;28;20581;-67
2023/07/23 13:40:26;;;;;;;0.50;0.20;;;23.30;99.90;26.00;100421.00;;;;5053762;28;20251;-67
2023/07/23 13:43:02;;;;;;;2.17;0.57;;;23.60;99.90;25.00;100414.00;;;;5052721;28;20189;-67
2023/07/23 13:45:34;;;;;;;8.52;1.13;;;23.40;99.90;24.60;100388.00;;;;5053826;28;20186;-67
2023/07/23 13:48:08;;;;;;;0.60;0.32;;;23.00;99.90;25.00;100401.00;;;;5053017;28;20205;-67
2023/07/23 13:50:44;;;;;;;0.20;0.20;;;23.10;99.90;26.00;100395.00;;;;5036017;28;20193;-67
2023/07/23 13:53:15;;;;;;;0.35;0.35;;;23.50;99.90;25.50;100391.00;;;;5053064;28;20212;-67
2023/07/23 13:55:55;;;;;;;0.22;0.22;;;23.50;99.90;26.30;100404.00;;;;5052132;28;20186;-67
2023/07/23 14:01:27;;;;;;;0.52;0.52;;;23.90;99.90;27.60;100412.00;;;;5037812;28;20202;-67
2023/07/23 14:04:01;;;;;;;0.85;0.85;;;24.60;99.90;26.90;100438.00;;;;5059550;28;20283;-67
2023/07/23 14:06:43;;;;;;;1.75;1.00;;;24.60;99.90;25.20;100410.00;;;;5074867;28;20276;-67
2023/07/23 14:09:18;;;;;;;2.42;1.67;;;24.00;99.90;23.70;100380.00;;;;5058060;28;20189;-67
2023/07/23 14:11:52;;;;;;;0.10;0.10;;;23.00;99.90;25.80;100389.00;;;;5057898;28;20196;-67
2023/07/23 14:14:23;;;;;;;1.10;1.00;;;23.20;99.90;24.40;100381.00;;;;5057769;28;20228;-67
2023/07/23 14:16:49;;;;;;;0.10;0.10;;;22.90;99.90;23.70;100386.00;;;;5058915;28;20181;-67
2023/07/23 14:19:33;;;;;;;0.20;0.20;;;22.30;99.90;24.10;100366.00;;;;5059208;28;20181;-67
2023/07/23 14:22:07;;;;;;;0.20;0.20;;;22.20;99.90;24.20;100379.00;;;;5058113;28;20204;-67
2023/07/23 14:24:44;;;;;;;0.82;0.82;;;22.20;99.90;23.50;100390.00;;;;5073948;28;20266;-67
2023/07/23 14:27:18;;;;;;;1.00;1.00;;;21.90;99.90;23.10;100380.00;;;;5058458;28;20271;-67
2023/07/23 14:29:52;;;;;;;1.10;1.00;;;21.60;99.90;22.70;100395.00;;;;5059420;28;20193;-67
2023/07/23 14:32:26;;;;;;;0.10;0.10;;;21.40;99.90;23.40;100401.00;;;;5057975;28;20255;-67
2023/07/23 14:35:03;;;;;;;0.38;0.38;;;21.30;99.90;22.40;100382.00;;;;5057231;28;20181;-67
2023/07/23 14:37:40;;;;;;;0.20;0.20;;;21.10;99.90;23.30;100369.00;;;;5058670;28;20769;-67
2023/07/23 14:40:18;;;;;;;0.32;0.32;;;21.20;99.90;22.90;100400.00;;;;5058719;28;20190;-67
2023/07/23 14:42:52;;;;;;;0.52;0.38;;;21.10;99.90;22.80;100397.00;;;;5058046;28;20208;-67
2023/07/23 14:45:28;;;;;;;0.57;0.57;;;21.20;99.90;22.90;100410.00;;;;5057249;28;20193;-67
2023/07/23 14:48:02;;;;;;;0.20;0.20;;;21.20;99.90;23.30;100412.00;;;;5057635;28;20182;-67
2023/07/23 14:50:41;;;;;;;0.10;0.10;;;21.20;99.90;23.50;100380.00;;;;5057722;28;20213;-67
2023/07/23 14:53:17;;;;;;;0.20;0.20;;;21.30;99.90;23.30;100408.00;;;;5057475;28;20204;-67
2023/07/23 14:55:52;;;;;;;0.55;0.55;;;21.30;99.90;23.30;100411.00;;;;5057283;28;20221;-67
2023/07/23 14:58:27;;;;;;;0.40;0.40;;;21.40;99.90;22.90;100426.00;;;;5057558;28;20188;-67
2023/07/23 15:00:53;;;;;;;1.13;0.88;;;21.20;99.90;22.20;100432.00;;;;5056644;28;20542;-67
2023/07/23 15:03:25;;;;;;;0.63;0.45;;;20.80;99.90;22.90;100439.00;;;;5058940;28;20201;-67
2023/07/23 15:05:57;;;;;;;1.35;0.32;;;20.80;99.90;23.80;100405.00;;;;5058636;28;20185;-67
2023/07/23 15:08:26;;;;;;;2.85;0.50;;;21.30;99.90;23.50;100418.00;;;;5073424;28;20269;-67
2023/07/23 15:10:52;;;;;;;0.20;0.20;;;21.40;99.90;24.00;100411.00;;;;5058177;28;20829;-67
2023/07/23 15:13:29;;;;;;;0.75;0.75;;;21.50;99.90;23.70;100398.00;;;;5074332;28;20292;-68
2023/07/23 15:15:55;;;;;;;1.08;0.40;;;21.60;99.90;24.00;100395.00;;;;5058129;28;20185;-67
2023/07/23 15:18:25;;;;;;;0.20;0.20;;;21.60;99.90;24.50;100390.00;;;;5057414;28;20655;-67
2023/07/23 15:20:53;;;;;;;0.15;0.15;;;21.90;99.90;24.30;100355.00;;;;5062479;28;20263;-67
2023/07/23 15:23:24;;;;;;;1.38;0.77;;;22.00;99.90;24.30;100352.00;;;;5078182;28;20220;-67
2023/07/23 15:26:03;;;;;;;0.95;0.95;;;22.20;99.90;24.10;100370.00;;;;5061887;28;20197;-67
2023/07/23 15:28:33;;;;;;;0.40;0.30;;;22.20;99.90;24.00;100371.00;;;;5062316;28;20185;-67
2023/07/23 15:31:07;;;;;;;0.95;0.93;;;22.20;99.90;25.40;100374.00;;;;5062198;28;20181;-67
2023/07/23 15:33:35;;;;;;;0.20;0.20;;;22.60;99.90;24.50;100364.00;;;;5062813;28;20193;-67
2023/07/23 15:36:04;;;;;;;0.10;0.10;;;22.70;99.90;24.60;100370.00;;;;5063338;28;20189;-67
2023/07/23 15:38:31;;;;;;;0.10;0.10;;;22.50;99.90;25.00;100363.00;;;;5063259;28;20264;-67
2023/07/23 15:41:00;;;;;;;0.30;0.30;;;22.70;99.90;24.10;100363.00;;;;5064290;28;20268;-67
2023/07/23 15:43:31;;;;;;;0.30;0.30;;;22.50;99.90;24.50;100359.00;;;;5062427;28;20211;-67
2023/07/23 15:46:04;;;;;;;1.20;1.10;;;22.40;99.90;23.40;100357.00;;;;5061092;28;20256;-67
2023/07/23 15:48:36;;;;;;;1.80;1.65;;;22.10;99.90;24.10;100365.00;;;;5062186;28;20309;-67
2023/07/23 15:51:10;;;;;;;0.57;0.57;;;22.30;99.90;23.80;100355.00;;;;5061652;28;20670;-67
2023/07/23 15:53:42;;;;;;;0.10;0.10;;;22.20;99.90;24.10;100357.00;;;;5078485;28;20180;-67
2023/07/23 15:56:19;;;;;;;0.70;0.65;;;22.30;99.90;23.40;100358.00;;;;5061837;28;20422;-67
2023/07/23 15:58:51;;;;;;;0.10;0.10;;;22.00;99.90;24.60;100351.00;;;;5078940;28;20192;-67
2023/07/23 16:01:23;;;;;;;0.20;0.20;;;22.30;99.90;24.40;100351.00;;;;5061286;28;20197;-67
2023/07/23 16:03:51;;;;;;;0.20;0.20;;;22.30;99.90;24.70;100345.00;;;;5061169;28;20203;-67
2023/07/23 16:06:23;;;;;;;0.10;0.10;;;22.40;99.90;24.70;100347.00;;;;5060809;28;20190;-67
2023/07/23 16:08:57;;;;;;;0.52;0.52;;;22.30;99.90;23.80;100352.00;;;;5061137;28;20182;-67
2023/07/23 16:11:28;;;;;;;0.50;0.50;;;22.10;99.90;23.20;100347.00;;;;5077909;28;20182;-67
2023/07/23 16:13:54;;;;;;;0.10;0.10;;;21.80;99.90;23.90;100314.00;;;;5061826;28;20225;-67
2023/07/23 16:16:34;;;;;;;0.25;0.25;;;21.80;99.90;23.80;100344.00;;;;5060295;28;20258;-67
2023/07/23 16:19:11;;;;;;;0.20;0.20;;;21.80;99.90;23.60;100344.00;;;;5077910;28;20602;-67
2023/07/23 16:22:12;;;;;;;0.25;0.25;;;21.80;99.90;23.60;100344.00;;;;5062639;28;20651;-67
2023/07/23 16:24:43;;;;;;;0.20;0.20;;;21.80;99.90;23.60;100347.00;;;;5060624;28;20196;-67
2023/07/23 16:27:09;;;;;;;0.20;0.20;;;21.60;99.90;23.10;100348.00;;;;5061893;28;20186;-67
2023/07/23 16:29:40;;;;;;;0.80;0.55;;;21.40;99.90;23.20;100362.00;;;;5060787;28;20193;-67
2023/07/23 16:32:12;;;;;;;0.80;0.80;;;21.30;99.90;23.40;100357.00;;;;5060785;28;20227;-67
2023/07/23 16:34:41;;;;;;;0.20;0.20;;;21.30;99.90;23.30;100350.00;;;;5059956;28;20239;-67
2023/07/23 16:37:35;;;;;;;0.40;0.40;;;21.30;99.90;23.10;100357.00;;;;5062151;28;20190;-67
2023/07/23 16:40:01;;;;;;;0.20;0.20;;;21.20;99.90;23.20;100346.00;;;;5060742;28;20316;-67
2023/07/23 16:42:30;;;;;;;3.30;0.75;;;21.20;99.90;23.20;100343.00;;;;5060319;28;20201;-67
2023/07/23 16:45:08;;;;;;;0.57;0.57;;;21.20;99.90;22.90;100346.00;;;;5061814;28;20260;-67
2023/07/23 16:47:34;;;;;;;0.40;0.40;;;21.20;99.90;22.60;100343.00;;;;5059924;28;20216;-67
2023/07/23 16:50:05;;;;;;;0.70;0.70;;;21.00;99.90;22.70;100343.00;;;;5060025;28;20233;-67
2023/07/23 16:52:51;;;;;;;1.45;0.70;;;21.00;99.90;22.80;100337.00;;;;5076239;28;20205;-67
2023/07/23 16:55:16;;;;;;;0.20;0.20;;;20.90;99.90;22.40;100355.00;;;;5060756;28;20205;-67
2023/07/23 16:57:42;;;;;;;0.55;0.50;;;20.70;99.90;22.80;100348.00;;;;5061177;28;20181;-67
2023/07/23 17:00:17;;;;;;;0.22;0.22;;;20.80;99.90;22.50;100330.00;;;;5061269;28;20776;-67
2023/07/23 17:02:44;;;;;;;0.35;0.35;;;20.60;99.90;22.30;100360.00;;;;5074455;28;20185;-68
2023/07/23 17:05:10;;;;;;;2.65;1.70;;;20.50;99.90;22.10;100370.00;;;;5059183;28;20182;-68
2023/07/23 17:07:41;;;;;;;0.90;0.90;;;20.30;99.90;21.80;100372.00;;;;5061155;28;20552;-69
2023/07/23 17:10:15;;;;;;;2.30;2.10;;;20.10;99.90;22.10;100371.00;;;;5058298;28;20198;-70
2023/07/23 17:13:04;;;;;;;1.10;1.10;;;20.10;99.90;21.80;100372.00;;;;5060893;28;20220;-70
2023/07/23 17:15:45;;;;;;;1.60;1.00;;;19.90;99.90;21.70;100370.00;;;;5059576;28;20209;-68
2023/07/23 17:18:14;;;;;;;0.90;0.90;;;19.80;99.90;21.60;100373.00;;;;5074066;28;20268;-68
2023/07/23 17:24:00;;;;;;;1.20;1.20;;;19.80;99.90;22.60;100377.00;;;;5060917;28;20225;-68
2023/07/23 17:26:51;;;;;;;1.30;1.30;;;20.00;99.90;22.60;100370.00;;;;5076872;28;20265;-68
2023/07/23 17:30:12;;;;;;;1.70;1.70;;;20.10;99.90;21.50;100376.00;;;;5074979;28;20693;-68
2023/07/23 17:32:40;;;;;;;1.20;1.20;;;20.00;99.90;21.70;100367.00;;;;5055971;28;20212;-69
2023/07/23 17:35:26;;;;;;;2.92;2.83;;;19.70;99.90;21.50;100339.00;;;;5057423;28;20222;-68
2023/07/23 17:38:27;;;;;;;2.85;2.75;;;19.50;99.90;22.10;100341.00;;;;5062295;28;20206;-68
2023/07/23 17:40:53;;;;;;;2.80;2.70;;;19.50;99.90;21.90;100343.00;;;;5044577;28;20731;-68
2023/07/23 17:43:38;;;;;;;2.92;2.83;;;19.60;99.90;21.60;100334.00;;;;5052993;28;20276;-67
2023/07/23 17:46:04;;;;;;;4.20;4.10;;;19.50;99.90;21.30;100360.00;;;;5053842;28;20182;-68
2023/07/23 17:48:32;;;;;;;4.30;4.20;;;19.40;99.90;21.40;100367.00;;;;5053386;28;20236;-69
2023/07/23 17:51:02;;;;;;;3.95;3.85;;;19.40;99.90;21.20;100359.00;;;;5051534;28;20174;-67
2023/07/23 17:54:00;;;;;;;3.70;3.60;;;19.30;99.90;21.40;100356.00;;;;5046956;28;20210;-68
2023/07/23 17:56:26;;;;;;;3.40;3.30;;;19.30;99.90;21.30;100357.00;;;;5051277;28;20198;-68
2023/07/23 17:59:00;;;;;;;3.90;3.80;;;19.20;99.90;21.40;100356.00;;;;5074551;28;20188;-68
2023/07/23 18:01:37;;;;;;;4.22;4.13;;;19.30;99.90;21.30;100359.00;;;;5057873;28;20184;-67
2023/07/23 18:04:17;;;;;;;4.47;4.38;;;19.20;99.90;21.50;100367.00;;;;5074636;28;20634;-68
2023/07/23 18:06:47;;;;;;;4.85;4.75;;;19.20;99.90;21.00;100363.00;;;;5058776;28;20599;-67
2023/07/23 18:09:26;;;;;;;4.20;4.10;;;19.20;99.90;21.40;100358.00;;;;5057631;28;20185;-67
2023/07/23 18:12:02;;;;;;;3.70;3.60;;;19.20;99.90;21.30;100333.00;;;;5058756;28;20232;-68
2023/07/23 18:15:00;;;;;;;3.60;3.50;;;19.20;99.90;21.20;100369.00;;;;5058129;28;20228;-68
2023/07/23 18:17:43;;;;;;;3.80;3.70;;;19.10;99.90;21.20;100364.00;;;;5054878;28;20287;-68
2023/07/23 18:20:19;;;;;;;4.55;4.45;;;19.20;99.90;21.00;100368.00;;;;5069290;28;20185;-68
2023/07/23 18:22:48;;;;;;;3.78;3.67;;;19.20;99.90;21.10;100370.00;;;;5074591;28;20193;-67
2023/07/23 18:25:25;;;;;;;3.05;2.95;;;19.20;99.90;21.00;100380.00;;;;5059112;28;20652;-68
2023/07/23 18:28:22;;;;;;;2.60;2.50;;;19.10;99.90;21.20;100379.00;;;;5055402;28;20192;-67
2023/07/23 18:31:12;;;;;;;2.60;2.50;;;19.20;99.90;21.10;100385.00;;;;5041872;28;20208;-67
2023/07/23 18:33:48;;;;;;;2.10;2.10;;;19.10;99.90;21.10;100375.00;;;;5051672;28;20233;-67
2023/07/23 18:36:20;;;;;;;2.30;2.30;;;19.10;99.90;21.00;100382.00;;;;5052087;28;20182;-67
2023/07/23 18:38:51;;;;;;;2.70;2.60;;;19.10;99.90;21.70;100376.00;;;;5052648;28;20191;-67
2023/07/23 18:41:31;;;;;;;3.38;3.28;;;19.20;99.90;21.10;100372.00;;;;5051782;28;20193;-67
2023/07/23 18:44:39;;;;;;;2.40;2.40;;;19.10;99.90;21.20;100370.00;;;;5050348;28;20666;-67
2023/07/23 18:47:47;;;;;;;3.00;2.90;;;19.20;99.90;21.00;100375.00;;;;5048309;28;20367;-67
2023/07/23 18:50:35;;;;;;;2.50;2.40;;;19.10;99.90;20.80;100368.00;;;;5047146;28;20256;-67
2023/07/23 18:53:35;;;;;;;2.40;2.40;;;19.00;99.90;21.20;100373.00;;;;5047587;28;20331;-67
2023/07/23 18:56:32;;;;;;;2.23;2.23;;;19.00;99.90;20.60;100356.00;;;;5056896;28;20539;-67